Time;durP1;ratioP1;P1;durP2;ratioP2;P2;SDS_P1;SDS_P2;PMS_P1;PMS_P2;Temp;Humidity;BMP_temperature;BMP_pressure;BME280_temperature;BME280_humidity;BME280_pressure;Samples;Min_cycle;Max_cycle;Signal;HPM_P1;HPM_P2
2023/12/17 00:01:11;0.00;0.00;0.62;0.00;0.00;0.62;2.97;2.20;;;21.50;27.70;;;;;;2264509;61;20400;-59
2023/12/17 00:03:56;0.00;0.00;0.62;0.00;0.00;0.62;2.00;1.70;;;21.50;27.70;;;;;;2263850;61;20407;-63
2023/12/17 00:06:42;0.00;0.00;0.62;0.00;0.00;0.62;2.40;1.90;;;21.50;27.70;;;;;;2264457;61;20406;-59
2023/12/17 00:09:26;0.00;0.00;0.62;0.00;0.00;0.62;2.90;2.40;;;21.50;27.70;;;;;;2264507;61;20426;-61
2023/12/17 00:12:12;0.00;0.00;0.62;0.00;0.00;0.62;2.80;2.00;;;21.50;27.70;;;;;;2263676;61;20912;-60
2023/12/17 00:14:57;0.00;0.00;0.62;0.00;0.00;0.62;2.50;2.13;;;21.50;27.70;;;;;;2264543;61;20364;-56
2023/12/17 00:17:42;0.00;0.00;0.62;0.00;0.00;0.62;2.53;2.00;;;21.50;27.70;;;;;;2264580;61;20379;-55
2023/12/17 00:20:26;0.00;0.00;0.62;0.00;0.00;0.62;2.80;1.67;;;21.50;27.70;;;;;;2264146;61;20399;-60
2023/12/17 00:23:11;0.00;0.00;0.62;0.00;0.00;0.62;2.13;1.90;;;21.50;27.70;;;;;;2263953;61;20418;-59
2023/12/17 00:25:55;0.00;0.00;0.62;0.00;0.00;0.62;2.23;1.97;;;21.50;27.70;;;;;;2264235;61;20372;-60
2023/12/17 00:28:41;0.00;0.00;0.62;0.00;0.00;0.62;2.77;2.20;;;21.50;27.70;;;;;;2261438;61;20410;-56
2023/12/17 00:31:26;0.00;0.00;0.62;0.00;0.00;0.62;2.63;1.93;;;21.50;27.70;;;;;;2264533;61;20437;-58
2023/12/17 00:34:10;0.00;0.00;0.62;0.00;0.00;0.62;2.27;1.73;;;21.50;27.70;;;;;;2261037;61;20942;-59
2023/12/17 00:36:55;0.00;0.00;0.62;0.00;0.00;0.62;2.20;1.77;;;21.50;27.70;;;;;;2264454;61;21130;-59
2023/12/17 00:39:40;0.00;0.00;0.62;0.00;0.00;0.62;2.30;1.90;;;21.50;27.70;;;;;;2264349;61;20364;-56
2023/12/17 00:42:25;0.00;0.00;0.62;0.00;0.00;0.62;2.90;2.03;;;21.50;27.70;;;;;;2263879;61;20434;-57
2023/12/17 00:45:11;0.00;0.00;0.62;0.00;0.00;0.62;2.40;1.87;;;21.50;27.70;;;;;;2264497;61;20439;-58
2023/12/17 00:47:55;0.00;0.00;0.62;0.00;0.00;0.62;3.13;2.10;;;21.50;27.70;;;;;;2264118;61;20891;-59
2023/12/17 00:50:40;0.00;0.00;0.62;0.00;0.00;0.62;2.67;1.90;;;21.50;27.70;;;;;;2264518;61;20422;-59
2023/12/17 00:53:24;0.00;0.00;0.62;0.00;0.00;0.62;2.23;1.80;;;21.50;27.70;;;;;;2264170;61;20364;-52
2023/12/17 00:56:10;0.00;0.00;0.62;0.00;0.00;0.62;2.73;2.37;;;21.50;27.70;;;;;;2264104;61;20900;-59
2023/12/17 00:58:55;0.00;0.00;0.62;0.00;0.00;0.62;2.60;1.90;;;21.50;27.70;;;;;;2264564;61;20434;-63
2023/12/17 01:01:40;0.00;0.00;0.62;0.00;0.00;0.62;3.10;2.30;;;21.50;27.70;;;;;;2264016;61;20404;-61
2023/12/17 01:04:25;0.00;0.00;0.62;0.00;0.00;0.62;2.40;1.90;;;21.50;27.70;;;;;;2263719;61;20430;-55
2023/12/17 01:07:09;0.00;0.00;0.62;0.00;0.00;0.62;2.50;1.80;;;21.50;27.70;;;;;;2264445;61;20372;-61
2023/12/17 01:09:54;0.00;0.00;0.62;0.00;0.00;0.62;2.20;1.77;;;21.50;27.70;;;;;;2264395;61;20379;-62
2023/12/17 01:12:40;0.00;0.00;0.62;0.00;0.00;0.62;2.40;1.83;;;21.50;27.70;;;;;;2264187;61;20359;-58
2023/12/17 01:15:25;0.00;0.00;0.62;0.00;0.00;0.62;2.60;1.90;;;21.50;27.70;;;;;;2264348;61;20962;-54
2023/12/17 01:18:11;0.00;0.00;0.62;0.00;0.00;0.62;2.43;1.87;;;21.50;27.70;;;;;;2264242;61;20384;-59
2023/12/17 01:20:58;0.00;0.00;0.62;0.00;0.00;0.62;2.70;2.13;;;21.50;27.70;;;;;;2261239;61;20843;-58
2023/12/17 01:23:43;0.00;0.00;0.62;0.00;0.00;0.62;3.30;2.17;;;21.50;27.70;;;;;;2263928;61;20363;-60
2023/12/17 01:26:29;0.00;0.00;0.62;0.00;0.00;0.62;2.40;1.90;;;21.50;27.70;;;;;;2264146;61;20410;-61
2023/12/17 01:29:14;0.00;0.00;0.62;0.00;0.00;0.62;3.00;2.03;;;21.50;27.70;;;;;;2264343;61;20452;-53
2023/12/17 01:31:58;0.00;0.00;0.62;0.00;0.00;0.62;2.40;1.90;;;21.60;27.70;;;;;;2263857;61;20439;-57
2023/12/17 01:34:44;0.00;0.00;0.62;0.00;0.00;0.62;2.90;1.80;;;21.60;27.70;;;;;;2264459;61;20782;-61
2023/12/17 01:37:29;0.00;0.00;0.62;0.00;0.00;0.62;3.33;2.13;;;21.60;27.70;;;;;;2264360;61;20506;-58
2023/12/17 01:40:13;0.00;0.00;0.62;0.00;0.00;0.62;2.83;2.33;;;21.60;27.70;;;;;;2263838;61;20434;-56
2023/12/17 01:42:58;0.00;0.00;0.62;0.00;0.00;0.62;3.20;1.97;;;21.50;27.70;;;;;;2263983;61;20434;-59
2023/12/17 01:45:43;0.00;0.00;0.62;0.00;0.00;0.62;2.80;2.17;;;21.50;27.70;;;;;;2264240;61;20419;-61
2023/12/17 01:48:29;0.00;0.00;0.62;0.00;0.00;0.62;2.43;2.23;;;21.50;27.70;;;;;;2264550;61;20449;-58
2023/12/17 01:51:16;0.00;0.00;0.62;0.00;0.00;0.62;4.13;2.30;;;21.60;27.80;;;;;;2265022;61;20379;-58
2023/12/17 01:54:01;0.00;0.00;0.62;0.00;0.00;0.62;2.70;2.40;;;21.50;27.70;;;;;;2265067;61;20391;-58
2023/12/17 01:56:46;0.00;0.00;0.62;0.00;0.00;0.62;3.20;2.40;;;21.50;27.70;;;;;;2264808;61;20364;-60
2023/12/17 01:59:32;0.00;0.00;0.62;0.00;0.00;0.62;3.53;2.57;;;21.50;27.70;;;;;;2265075;61;20920;-58
2023/12/17 02:02:17;0.00;0.00;0.62;0.00;0.00;0.62;2.63;2.20;;;21.60;27.70;;;;;;2264266;61;20429;-58
2023/12/17 02:05:05;0.00;0.00;0.62;0.00;0.00;0.62;3.03;2.20;;;21.50;27.70;;;;;;2265327;61;20391;-62
2023/12/17 02:07:51;0.00;0.00;0.62;0.00;0.00;0.62;4.10;2.40;;;21.60;27.70;;;;;;2265083;61;20864;-56
2023/12/17 02:10:36;0.00;0.00;0.62;0.00;0.00;0.62;2.63;1.97;;;21.50;27.70;;;;;;2264858;61;20438;-57
2023/12/17 02:13:20;0.00;0.00;0.62;0.00;0.00;0.62;3.40;2.33;;;21.60;27.70;;;;;;2264895;61;20356;-57
2023/12/17 02:16:06;0.00;0.00;0.62;0.00;0.00;0.62;3.30;2.30;;;21.60;27.70;;;;;;2265139;61;20368;-58
2023/12/17 02:18:51;0.00;0.00;0.62;0.00;0.00;0.62;3.40;2.20;;;21.60;27.70;;;;;;2264791;61;20367;-59
2023/12/17 02:21:35;0.00;0.00;0.62;0.00;0.00;0.62;3.10;2.20;;;21.60;27.70;;;;;;2264634;61;20449;-59
2023/12/17 02:24:21;0.00;0.00;0.62;0.00;0.00;0.62;2.87;2.27;;;21.60;27.80;;;;;;2264804;61;20418;-55
2023/12/17 02:27:06;0.00;0.00;0.62;0.00;0.00;0.62;2.40;1.90;;;21.60;27.70;;;;;;2265200;61;20523;-55
2023/12/17 02:29:53;0.00;0.00;0.62;0.00;0.00;0.62;2.53;2.20;;;21.60;27.70;;;;;;2264671;61;20372;-58
2023/12/17 02:32:37;0.00;0.00;0.62;0.00;0.00;0.62;2.53;1.80;;;21.60;27.70;;;;;;2264387;61;20371;-57
2023/12/17 02:35:22;0.00;0.00;0.62;0.00;0.00;0.62;2.50;2.00;;;21.60;27.70;;;;;;2263611;61;20419;-53
2023/12/17 02:38:07;0.00;0.00;0.62;0.00;0.00;0.62;2.87;2.20;;;21.60;28.20;;;;;;2261057;61;20389;-54
2023/12/17 02:40:52;0.00;0.00;0.62;0.00;0.00;0.62;4.13;2.47;;;21.60;27.70;;;;;;2260654;61;20471;-57
2023/12/17 02:43:38;0.00;0.00;0.62;0.00;0.00;0.62;2.67;2.10;;;21.60;27.70;;;;;;2260965;61;20361;-53
2023/12/17 02:46:23;0.00;0.00;0.62;0.00;0.00;0.62;2.60;2.13;;;21.60;27.70;;;;;;2260658;61;20376;-54
2023/12/17 02:49:08;0.00;0.00;0.62;0.00;0.00;0.62;2.40;2.00;;;21.60;27.70;;;;;;2257102;61;20373;-57
2023/12/17 02:51:52;0.00;0.00;0.62;0.00;0.00;0.62;2.30;1.80;;;21.50;27.70;;;;;;2254518;61;20493;-56
2023/12/17 02:54:37;0.00;0.00;0.62;0.00;0.00;0.62;3.03;2.27;;;21.60;27.80;;;;;;2256487;61;20442;-56
2023/12/17 02:57:25;0.00;0.00;0.62;0.00;0.00;0.62;2.73;2.17;;;21.60;27.70;;;;;;2256837;61;20765;-53
2023/12/17 03:00:11;0.00;0.00;0.62;0.00;0.00;0.62;2.30;1.60;;;21.60;27.70;;;;;;2256760;61;20898;-57
2023/12/17 03:02:57;0.00;0.00;0.62;0.00;0.00;0.62;2.90;2.43;;;21.60;27.70;;;;;;2256177;61;20425;-55
2023/12/17 03:05:41;0.00;0.00;0.62;0.00;0.00;0.62;2.00;1.60;;;21.60;27.70;;;;;;2257010;61;20760;-56
2023/12/17 03:08:26;0.00;0.00;0.62;0.00;0.00;0.62;3.10;2.10;;;21.60;27.70;;;;;;2256751;61;20358;-59
2023/12/17 03:11:10;0.00;0.00;0.62;0.00;0.00;0.62;2.40;1.83;;;21.60;27.70;;;;;;2256660;61;20832;-54
2023/12/17 03:13:57;0.00;0.00;0.62;0.00;0.00;0.62;2.57;1.90;;;21.60;27.70;;;;;;2256872;61;20370;-54
2023/12/17 03:16:42;0.00;0.00;0.62;0.00;0.00;0.62;2.70;1.73;;;21.60;27.70;;;;;;2256719;61;20401;-57
2023/12/17 03:19:27;0.00;0.00;0.62;0.00;0.00;0.62;3.53;2.00;;;21.60;27.70;;;;;;2256897;61;20420;-56
2023/12/17 03:22:12;0.00;0.00;0.62;0.00;0.00;0.62;3.07;2.23;;;21.60;27.70;;;;;;2256470;61;20509;-58
2023/12/17 03:24:57;0.00;0.00;0.62;0.00;0.00;0.62;2.67;1.80;;;21.60;27.70;;;;;;2256546;61;20453;-57
2023/12/17 03:27:41;0.00;0.00;0.62;0.00;0.00;0.62;2.20;1.60;;;21.60;27.70;;;;;;2256956;61;20370;-54
2023/12/17 03:30:27;0.00;0.00;0.62;0.00;0.00;0.62;3.20;2.20;;;21.60;27.70;;;;;;2256827;61;20390;-54
2023/12/17 03:33:12;0.00;0.00;0.62;0.00;0.00;0.62;2.90;1.70;;;21.60;27.70;;;;;;2256540;61;20530;-59
2023/12/17 03:35:56;0.00;0.00;0.62;0.00;0.00;0.62;1.83;1.30;;;21.60;27.70;;;;;;2261824;61;20456;-54
2023/12/17 03:38:44;0.00;0.00;0.62;0.00;0.00;0.62;2.47;1.73;;;21.60;27.70;;;;;;2264666;61;20838;-53
2023/12/17 03:41:29;0.00;0.00;0.62;0.00;0.00;0.62;2.23;1.60;;;21.60;27.80;;;;;;2264616;61;20446;-57
2023/12/17 03:44:14;0.00;0.00;0.62;0.00;0.00;0.62;2.50;1.80;;;21.60;27.70;;;;;;2265071;61;20819;-58
2023/12/17 03:46:59;0.00;0.00;0.62;0.00;0.00;0.62;2.60;1.70;;;21.60;27.70;;;;;;2264453;61;20363;-56
2023/12/17 03:49:44;0.00;0.00;0.62;0.00;0.00;0.62;3.60;1.83;;;21.60;27.70;;;;;;2264899;61;20372;-56
2023/12/17 03:52:30;0.00;0.00;0.62;0.00;0.00;0.62;2.53;1.93;;;21.60;27.70;;;;;;2264596;61;20364;-58
2023/12/17 03:55:15;0.00;0.00;0.62;0.00;0.00;0.62;2.33;2.10;;;21.60;27.70;;;;;;2264742;61;20368;-56
2023/12/17 03:57:59;0.00;0.00;0.62;0.00;0.00;0.62;2.83;2.00;;;21.60;27.70;;;;;;2264981;61;20357;-58
2023/12/17 04:00:44;0.00;0.00;0.62;0.00;0.00;0.62;2.53;1.97;;;21.60;28.20;;;;;;2264320;61;20391;-55
2023/12/17 04:03:30;0.00;0.00;0.62;0.00;0.00;0.62;3.03;1.97;;;21.60;27.80;;;;;;2264202;61;20407;-54
2023/12/17 04:06:15;0.00;0.00;0.62;0.00;0.00;0.62;2.20;1.50;;;21.60;27.70;;;;;;2264882;61;20359;-57
2023/12/17 04:08:59;0.00;0.00;0.62;0.00;0.00;0.62;2.70;1.60;;;21.60;27.80;;;;;;2264393;61;20834;-57
2023/12/17 04:11:44;0.00;0.00;0.62;0.00;0.00;0.62;2.27;1.63;;;21.60;27.80;;;;;;2264274;61;20466;-57
2023/12/17 04:14:28;0.00;0.00;0.62;0.00;0.00;0.62;2.30;1.90;;;21.60;27.70;;;;;;2264681;61;20364;-57
2023/12/17 04:17:13;0.00;0.00;0.62;0.00;0.00;0.62;2.77;1.80;;;21.60;27.70;;;;;;2264694;61;20364;-55
2023/12/17 04:19:58;0.00;0.00;0.62;0.00;0.00;0.62;1.90;1.40;;;21.60;27.70;;;;;;2264312;61;20808;-59
2023/12/17 04:22:43;0.00;0.00;0.62;0.00;0.00;0.62;2.60;2.00;;;21.60;27.70;;;;;;2264098;61;20387;-55
2023/12/17 04:25:28;0.00;0.00;0.62;0.00;0.00;0.62;2.20;1.43;;;21.60;27.70;;;;;;2261560;61;20413;-55
2023/12/17 04:28:12;0.00;0.00;0.62;0.00;0.00;0.62;2.37;1.67;;;21.60;27.70;;;;;;2264987;61;20856;-54
2023/12/17 04:30:57;0.00;0.00;0.62;0.00;0.00;0.62;1.80;1.23;;;21.60;27.70;;;;;;2264296;61;20468;-60
2023/12/17 04:33:41;0.00;0.00;0.62;0.00;0.00;0.62;2.80;1.50;;;21.60;27.70;;;;;;2264710;61;20957;-52
2023/12/17 04:36:27;0.00;0.00;0.62;0.00;0.00;0.62;1.90;1.33;;;21.60;27.80;;;;;;2264534;61;20372;-53
2023/12/17 04:39:12;0.00;0.00;0.62;0.00;0.00;0.62;2.60;1.67;;;21.60;27.70;;;;;;2264590;61;20491;-54
2023/12/17 04:41:57;0.00;0.00;0.62;0.00;0.00;0.62;2.20;1.80;;;21.60;27.70;;;;;;2264397;61;20403;-55
2023/12/17 04:44:41;0.00;0.00;0.62;0.00;0.00;0.62;2.30;1.50;;;21.60;27.70;;;;;;2264612;61;20368;-55
2023/12/17 04:47:26;0.00;0.00;0.62;0.00;0.00;0.62;2.10;1.50;;;21.60;27.70;;;;;;2264628;61;20439;-57
2023/12/17 04:50:11;0.00;0.00;0.62;0.00;0.00;0.62;2.00;1.47;;;21.60;27.70;;;;;;2264603;61;20387;-56
2023/12/17 04:52:57;0.00;0.00;0.62;0.00;0.00;0.62;2.57;1.63;;;21.60;27.70;;;;;;2263886;61;20364;-56
2023/12/17 04:55:41;0.00;0.00;0.62;0.00;0.00;0.62;3.10;1.80;;;21.60;27.70;;;;;;2264699;61;20419;-55
2023/12/17 04:58:26;0.00;0.00;0.62;0.00;0.00;0.62;2.57;1.73;;;21.60;27.70;;;;;;2264627;61;20403;-57
2023/12/17 05:01:11;0.00;0.00;0.62;0.00;0.00;0.62;2.40;1.80;;;21.60;27.80;;;;;;2263924;61;21052;-53
2023/12/17 05:03:55;0.00;0.00;0.62;0.00;0.00;0.62;2.13;1.60;;;21.60;27.80;;;;;;2261060;61;20352;-56
2023/12/17 05:06:21;0.00;0.00;0.62;0.00;0.00;0.62;2.20;1.50;;;21.60;27.70;;;;;;2264651;61;20444;-56
2023/12/17 05:08:49;0.00;0.00;0.62;0.00;0.00;0.62;2.00;1.40;;;21.60;27.70;;;;;;2264206;61;20889;-51
2023/12/17 05:11:15;0.00;0.00;0.62;0.00;0.00;0.62;2.27;1.60;;;21.60;27.70;;;;;;2264554;61;20380;-56
2023/12/17 05:13:41;0.00;0.00;0.62;0.00;0.00;0.62;2.60;1.73;;;21.60;27.80;;;;;;2264484;61;20386;-57
2023/12/17 05:16:07;0.00;0.00;0.62;0.00;0.00;0.62;4.10;2.13;;;21.60;27.70;;;;;;2264175;61;20374;-57
2023/12/17 05:18:34;0.00;0.00;0.62;0.00;0.00;0.62;2.50;1.90;;;21.60;27.80;;;;;;2264558;61;20356;-54
2023/12/17 05:21:00;0.00;0.00;0.62;0.00;0.00;0.62;2.37;1.70;;;21.60;27.70;;;;;;2264403;61;20365;-56
2023/12/17 05:23:26;0.00;0.00;0.62;0.00;0.00;0.62;2.43;1.60;;;21.60;27.70;;;;;;2263878;61;20468;-54
2023/12/17 05:26:12;0.00;0.00;0.62;0.00;0.00;0.62;2.00;1.70;;;21.60;27.70;;;;;;2264594;61;20440;-59
2023/12/17 05:28:57;0.00;0.00;0.62;0.00;0.00;0.62;2.23;1.60;;;21.60;27.70;;;;;;2264558;61;20376;-58
2023/12/17 05:31:42;0.00;0.00;0.62;0.00;0.00;0.62;2.07;1.53;;;21.60;27.70;;;;;;2264323;61;20375;-57
2023/12/17 05:34:26;0.00;0.00;0.62;0.00;0.00;0.62;1.70;1.30;;;21.60;27.80;;;;;;2264438;61;20387;-55
2023/12/17 05:37:11;0.00;0.00;0.62;0.00;0.00;0.62;2.00;1.47;;;21.60;27.70;;;;;;2264338;61;20368;-61
2023/12/17 05:39:55;0.00;0.00;0.62;0.00;0.00;0.62;2.13;1.30;;;21.60;27.70;;;;;;2264577;61;20415;-58
2023/12/17 05:42:41;0.00;0.00;0.62;0.00;0.00;0.62;2.27;1.60;;;21.60;27.70;;;;;;2264140;61;20387;-58
2023/12/17 05:45:26;0.00;0.00;0.62;0.00;0.00;0.62;2.67;1.70;;;21.60;27.70;;;;;;2264186;61;20490;-57
2023/12/17 05:48:10;0.00;0.00;0.62;0.00;0.00;0.62;1.77;1.40;;;21.60;27.70;;;;;;2264578;61;20371;-53
2023/12/17 05:50:55;0.00;0.00;0.62;0.00;0.00;0.62;1.93;1.47;;;21.60;28.20;;;;;;2264203;61;20379;-57
2023/12/17 05:53:39;0.00;0.00;0.62;0.00;0.00;0.62;2.20;1.60;;;21.60;27.70;;;;;;2264373;61;20390;-56
2023/12/17 05:56:24;0.00;0.00;0.62;0.00;0.00;0.62;1.97;1.60;;;21.60;27.70;;;;;;2264404;61;20437;-59
2023/12/17 05:59:10;0.00;0.00;0.62;0.00;0.00;0.62;2.20;1.60;;;21.60;27.70;;;;;;2264101;61;20367;-56
2023/12/17 06:01:55;0.00;0.00;0.62;0.00;0.00;0.62;2.10;1.60;;;21.60;27.80;;;;;;2263965;61;20853;-56
2023/12/17 06:04:40;0.00;0.00;0.62;0.00;0.00;0.62;1.87;1.50;;;21.60;27.70;;;;;;2264320;61;20923;-55
2023/12/17 06:07:24;0.00;0.00;0.62;0.00;0.00;0.62;1.97;1.60;;;21.60;27.80;;;;;;2264026;61;20364;-54
2023/12/17 06:10:09;0.00;0.00;0.62;0.00;0.00;0.62;2.87;1.70;;;21.60;27.70;;;;;;2264480;61;20882;-56
2023/12/17 06:12:54;0.00;0.00;0.62;0.00;0.00;0.62;2.10;1.53;;;21.60;27.70;;;;;;2263982;61;20382;-59
2023/12/17 06:15:40;0.00;0.00;0.62;0.00;0.00;0.62;2.30;1.70;;;21.60;27.70;;;;;;2264313;61;20368;-57
2023/12/17 06:18:25;0.00;0.00;0.62;0.00;0.00;0.62;1.93;1.47;;;21.60;27.70;;;;;;2261167;61;20364;-59
2023/12/17 06:21:09;0.00;0.00;0.62;0.00;0.00;0.62;1.87;1.43;;;21.60;28.20;;;;;;2264210;61;20780;-57
2023/12/17 06:24:02;0.00;0.00;0.62;0.00;0.00;0.62;1.90;1.30;;;21.60;27.70;;;;;;2264042;61;20423;-56
2023/12/17 06:26:48;0.00;0.00;0.62;0.00;0.00;0.62;2.03;1.30;;;21.60;27.70;;;;;;2264465;61;20409;-54
2023/12/17 06:29:33;0.00;0.00;0.62;0.00;0.00;0.62;2.20;1.50;;;21.60;27.70;;;;;;2264070;61;20363;-58
2023/12/17 06:32:19;0.00;0.00;0.62;0.00;0.00;0.62;2.20;1.80;;;21.60;27.70;;;;;;2264171;61;20891;-54
2023/12/17 06:35:05;0.00;0.00;0.62;0.00;0.00;0.62;1.80;1.27;;;21.60;27.70;;;;;;2264485;61;20372;-54
2023/12/17 06:37:50;0.00;0.00;0.62;0.00;0.00;0.62;1.80;1.50;;;21.60;27.70;;;;;;2264954;61;20367;-55
2023/12/17 06:40:34;0.00;0.00;0.62;0.00;0.00;0.62;1.90;1.50;;;21.60;27.70;;;;;;2283693;39;20405;-59
2023/12/17 06:43:19;0.00;0.00;0.62;0.00;0.00;0.62;2.10;1.50;;;21.60;27.70;;;;;;2268630;61;20904;-53
2023/12/17 06:46:06;0.00;0.00;0.62;0.00;0.00;0.62;1.90;1.30;;;21.60;27.70;;;;;;2268870;61;20362;-59
2023/12/17 06:48:52;0.00;0.00;0.62;0.00;0.00;0.62;1.73;1.30;;;21.60;27.70;;;;;;2269050;61;20902;-58
2023/12/17 06:51:41;0.00;0.00;0.62;0.00;0.00;0.62;2.10;1.60;;;21.60;27.70;;;;;;2268410;61;20401;-55
2023/12/17 06:54:26;0.00;0.00;0.62;0.00;0.00;0.62;2.33;1.83;;;21.60;27.70;;;;;;2263078;61;20434;-53
2023/12/17 06:57:11;0.00;0.00;0.62;0.00;0.00;0.62;2.13;1.60;;;21.60;28.30;;;;;;2268943;61;20875;-53
2023/12/17 06:59:55;0.00;0.00;0.62;0.00;0.00;0.62;1.80;1.50;;;21.60;27.70;;;;;;2268893;61;20395;-53
2023/12/17 07:02:40;0.00;0.00;0.62;0.00;0.00;0.62;1.80;1.30;;;21.60;27.70;;;;;;2268840;61;20441;-54
2023/12/17 07:05:26;0.00;0.00;0.62;0.00;0.00;0.62;2.00;1.30;;;21.60;27.70;;;;;;2268978;61;20366;-53
2023/12/17 07:08:10;0.00;0.00;0.62;0.00;0.00;0.62;1.90;1.30;;;21.60;27.80;;;;;;2269028;61;20401;-56
2023/12/17 07:10:55;0.00;0.00;0.62;0.00;0.00;0.62;2.47;1.60;;;21.60;27.80;;;;;;2268826;61;20419;-56
2023/12/17 07:13:39;0.00;0.00;0.62;0.00;0.00;0.62;2.03;1.50;;;21.60;27.80;;;;;;2268562;61;20374;-56
2023/12/17 07:16:26;0.00;0.00;0.62;0.00;0.00;0.62;2.23;1.63;;;21.60;27.70;;;;;;2269109;61;20358;-57
2023/12/17 07:19:11;0.00;0.00;0.62;0.00;0.00;0.62;1.87;1.30;;;21.60;27.70;;;;;;2268876;61;20879;-59
2023/12/17 07:21:57;0.00;0.00;0.62;0.00;0.00;0.62;1.80;1.50;;;21.60;27.70;;;;;;2268450;61;20402;-53
2023/12/17 07:24:42;0.00;0.00;0.62;0.00;0.00;0.62;2.03;1.30;;;21.60;27.70;;;;;;2269075;61;20514;-57
2023/12/17 07:27:27;0.00;0.00;0.62;0.00;0.00;0.62;2.57;1.40;;;21.60;27.80;;;;;;2268601;61;20447;-56
2023/12/17 07:30:13;0.00;0.00;0.62;0.00;0.00;0.62;2.10;1.40;;;21.60;27.80;;;;;;2268889;61;20522;-56
2023/12/17 07:32:57;0.00;0.00;0.62;0.00;0.00;0.62;2.73;1.40;;;21.60;27.70;;;;;;2268653;61;20666;-52
2023/12/17 07:35:42;0.00;0.00;0.62;0.00;0.00;0.62;1.93;1.37;;;21.60;27.70;;;;;;2268593;61;20494;-56
2023/12/17 07:38:28;0.00;0.00;0.62;0.00;0.00;0.62;2.17;1.50;;;21.60;27.80;;;;;;2265662;61;20444;-54
2023/12/17 07:41:13;0.00;0.00;0.62;0.00;0.00;0.62;2.33;1.70;;;21.60;27.70;;;;;;2268690;61;20922;-57
2023/12/17 07:43:58;0.00;0.00;0.62;0.00;0.00;0.62;1.87;1.40;;;21.60;27.70;;;;;;2268571;61;20399;-58
2023/12/17 07:46:42;0.00;0.00;0.62;0.00;0.00;0.62;1.80;1.20;;;21.60;27.70;;;;;;2268609;61;20382;-58
2023/12/17 07:49:27;0.00;0.00;0.62;0.00;0.00;0.62;2.00;1.47;;;21.60;27.70;;;;;;2268848;61;20390;-57
2023/12/17 07:52:12;0.00;0.00;0.62;0.00;0.00;0.62;2.30;1.80;;;21.60;27.70;;;;;;2268535;61;20375;-55
2023/12/17 07:54:58;0.00;0.00;0.62;0.00;0.00;0.62;2.00;1.53;;;21.60;27.70;;;;;;2269042;61;20378;-54
2023/12/17 07:57:42;0.00;0.00;0.62;0.00;0.00;0.62;2.03;1.63;;;21.60;27.80;;;;;;2265327;61;20429;-55
2023/12/17 08:00:27;0.00;0.00;0.62;0.00;0.00;0.62;2.43;1.90;;;21.60;27.80;;;;;;2268881;61;20389;-58
2023/12/17 08:03:11;0.00;0.00;0.62;0.00;0.00;0.62;2.13;1.40;;;21.60;27.80;;;;;;2268687;61;20561;-60
2023/12/17 08:05:56;0.00;0.00;0.62;0.00;0.00;0.62;1.97;1.50;;;21.60;27.70;;;;;;2268932;61;20367;-60
2023/12/17 08:08:41;0.00;0.00;0.62;0.00;0.00;0.62;2.50;2.00;;;21.60;27.70;;;;;;2268659;61;20835;-59
2023/12/17 08:11:26;0.00;0.00;0.62;0.00;0.00;0.62;2.10;1.60;;;21.60;27.80;;;;;;2265498;61;20444;-60
2023/12/17 08:14:11;0.00;0.00;0.62;0.00;0.00;0.62;2.40;1.70;;;21.60;27.80;;;;;;2268584;61;20352;-59
2023/12/17 08:16:56;0.00;0.00;0.62;0.00;0.00;0.62;2.63;1.93;;;21.60;27.70;;;;;;2268609;61;20355;-58
2023/12/17 08:19:42;0.00;0.00;0.62;0.00;0.00;0.62;2.60;2.00;;;21.60;27.70;;;;;;2268315;61;20870;-60
2023/12/17 08:22:27;0.00;0.00;0.62;0.00;0.00;0.62;3.23;2.33;;;21.60;27.70;;;;;;2271381;61;20954;-60
2023/12/17 08:25:11;0.00;0.00;0.62;0.00;0.00;0.62;2.53;2.00;;;21.60;27.70;;;;;;2272535;61;20429;-57
2023/12/17 08:27:58;0.00;0.00;0.62;0.00;0.00;0.62;2.70;2.40;;;21.60;27.70;;;;;;2272543;61;20346;-57
2023/12/17 08:30:42;0.00;0.00;0.62;0.00;0.00;0.62;3.13;2.67;;;21.60;27.70;;;;;;2272601;61;20386;-58
2023/12/17 08:33:27;0.00;0.00;0.62;0.00;0.00;0.62;3.50;2.73;;;21.60;27.70;;;;;;2272437;61;20775;-59
2023/12/17 08:36:11;0.00;0.00;0.62;0.00;0.00;0.62;3.40;2.70;;;21.60;27.70;;;;;;2272292;61;20561;-57
2023/12/17 08:38:56;0.00;0.00;0.62;0.00;0.00;0.62;2.50;2.00;;;21.60;27.70;;;;;;2272901;61;20405;-60
2023/12/17 08:41:40;0.00;0.00;0.62;0.00;0.00;0.62;3.37;2.70;;;21.60;27.70;;;;;;2268737;61;20460;-60
2023/12/17 08:44:26;0.00;0.00;0.62;0.00;0.00;0.62;3.40;2.87;;;21.60;27.70;;;;;;2272643;61;20366;-56
2023/12/17 08:47:11;0.00;0.00;0.62;0.00;0.00;0.62;2.80;2.53;;;21.60;27.70;;;;;;2272621;61;20366;-56
2023/12/17 08:50:10;0.00;0.00;0.62;0.00;0.00;0.62;3.27;2.53;;;21.60;27.70;;;;;;2272377;61;20605;-54
2023/12/17 08:52:55;0.00;0.00;0.62;0.00;0.00;0.62;3.57;2.97;;;21.60;27.80;;;;;;2265752;61;20789;-59
2023/12/17 08:55:40;0.00;0.00;0.62;0.00;0.00;0.62;3.77;2.80;;;21.60;27.70;;;;;;2264538;61;20396;-58
2023/12/17 08:58:24;0.00;0.00;0.62;0.00;0.00;0.62;2.77;2.13;;;21.60;27.70;;;;;;2264165;61;20425;-56
2023/12/17 09:01:10;0.00;0.00;0.62;0.00;0.00;0.62;2.80;2.50;;;21.60;27.70;;;;;;2262108;61;20508;-57
2023/12/17 09:03:55;0.00;0.00;0.62;0.00;0.00;0.62;2.97;2.07;;;21.60;27.70;;;;;;2256746;61;20953;-58
2023/12/17 09:06:44;0.00;0.00;0.62;0.00;0.00;0.62;2.50;2.10;;;21.60;27.70;;;;;;2260537;61;20427;-58
2023/12/17 09:09:28;0.00;0.00;0.62;0.00;0.00;0.62;3.20;2.43;;;21.60;27.70;;;;;;2260361;61;20365;-60
2023/12/17 09:12:13;0.00;0.00;0.62;0.00;0.00;0.62;2.97;2.20;;;21.70;27.80;;;;;;2259774;61;20380;-59
2023/12/17 09:14:58;0.00;0.00;0.62;0.00;0.00;0.62;4.37;2.40;;;21.60;27.80;;;;;;2260336;61;20909;-57
2023/12/17 09:17:43;0.00;0.00;0.62;0.00;0.00;0.62;2.90;2.30;;;21.60;27.70;;;;;;2260508;61;20373;-58
2023/12/17 09:20:28;0.00;0.00;0.62;0.00;0.00;0.62;2.67;2.40;;;21.70;27.80;;;;;;2260218;61;20439;-59
2023/12/17 09:23:13;0.00;0.00;0.62;0.00;0.00;0.62;2.97;2.37;;;21.60;27.70;;;;;;2259993;61;20811;-59
2023/12/17 09:25:57;0.00;0.00;0.62;0.00;0.00;0.62;3.07;2.23;;;21.70;27.80;;;;;;2259978;61;20414;-58
2023/12/17 09:28:43;0.00;0.00;0.62;0.00;0.00;0.62;3.90;3.13;;;21.70;27.80;;;;;;2257203;61;20419;-58
2023/12/17 09:31:27;0.00;0.00;0.62;0.00;0.00;0.62;3.30;2.50;;;21.70;28.30;;;;;;2260572;61;20434;-57
2023/12/17 09:34:14;0.00;0.00;0.62;0.00;0.00;0.62;3.03;2.57;;;21.60;27.70;;;;;;2260246;61;20391;-60
2023/12/17 09:36:59;0.00;0.00;0.62;0.00;0.00;0.62;3.00;2.37;;;21.60;27.70;;;;;;2260454;61;20368;-58
2023/12/17 09:39:44;0.00;0.00;0.62;0.00;0.00;0.62;3.50;2.83;;;21.70;27.80;;;;;;2260304;61;20360;-56
2023/12/17 09:42:29;0.00;0.00;0.62;0.00;0.00;0.62;2.90;2.40;;;21.60;27.70;;;;;;2259709;61;20458;-60
2023/12/17 09:45:14;0.00;0.00;0.62;0.00;0.00;0.62;3.63;3.20;;;21.70;27.80;;;;;;2257387;61;20422;-60
2023/12/17 09:47:59;0.00;0.00;0.62;0.00;0.00;0.62;3.33;2.63;;;21.70;27.80;;;;;;2260213;61;20369;-56
2023/12/17 09:50:45;0.00;0.00;0.62;0.00;0.00;0.62;2.83;2.30;;;21.70;27.80;;;;;;2261585;61;20951;-59
2023/12/17 09:53:31;0.00;0.00;0.62;0.00;0.00;0.62;3.00;2.63;;;21.70;27.80;;;;;;2264046;61;20368;-59
2023/12/17 09:56:15;0.00;0.00;0.62;0.00;0.00;0.62;3.70;2.60;;;21.70;27.80;;;;;;2264010;61;20409;-57
2023/12/17 09:59:00;0.00;0.00;0.62;0.00;0.00;0.62;3.27;2.77;;;21.70;27.80;;;;;;2264120;61;20360;-58
2023/12/17 10:01:45;0.00;0.00;0.62;0.00;0.00;0.62;3.60;2.73;;;21.70;27.80;;;;;;2264182;61;20379;-55
2023/12/17 10:04:30;0.00;0.00;0.62;0.00;0.00;0.62;4.27;3.10;;;21.70;27.80;;;;;;2264105;61;20422;-59
2023/12/17 10:07:16;0.00;0.00;0.62;0.00;0.00;0.62;4.37;2.93;;;21.70;27.80;;;;;;2264408;61;20364;-57
2023/12/17 10:10:03;0.00;0.00;0.62;0.00;0.00;0.62;3.33;3.03;;;21.70;27.80;;;;;;2256957;61;20451;-57
2023/12/17 10:12:48;0.00;0.00;0.62;0.00;0.00;0.62;3.13;2.70;;;21.70;27.80;;;;;;2264644;61;20356;-57
2023/12/17 10:15:36;0.00;0.00;0.62;0.00;0.00;0.62;2.83;2.43;;;21.70;27.80;;;;;;2265090;61;20583;-55
2023/12/17 10:18:22;0.00;0.00;0.62;0.00;0.00;0.62;3.00;2.70;;;21.70;27.80;;;;;;2264847;61;20371;-59
2023/12/17 10:21:08;0.00;0.00;0.62;0.00;0.00;0.62;2.97;2.63;;;21.70;27.80;;;;;;2264919;61;20566;-53
2023/12/17 10:23:54;0.00;0.00;0.62;0.00;0.00;0.62;2.57;2.10;;;21.70;27.80;;;;;;2264683;61;20384;-59
2023/12/17 10:26:43;0.00;0.00;0.62;0.00;0.00;0.62;2.97;2.63;;;21.70;27.80;;;;;;2264630;61;20915;-56
2023/12/17 10:29:28;0.00;0.00;0.62;0.00;0.00;0.62;2.80;2.47;;;21.70;27.80;;;;;;2265129;61;20815;-60
2023/12/17 10:32:14;0.00;0.00;0.62;0.00;0.00;0.62;3.70;2.83;;;21.70;27.80;;;;;;2264668;61;20379;-60
2023/12/17 10:34:59;0.00;0.00;0.62;0.00;0.00;0.62;4.40;3.57;;;21.70;27.80;;;;;;2265043;61;20375;-57
2023/12/17 10:37:45;0.00;0.00;0.62;0.00;0.00;0.62;3.50;2.80;;;21.70;27.80;;;;;;2265328;61;20363;-60
2023/12/17 10:40:41;0.00;0.00;0.62;0.00;0.00;0.62;3.87;3.40;;;21.70;27.80;;;;;;2264695;61;20408;-58
2023/12/17 10:43:28;0.00;0.00;0.62;0.00;0.00;0.62;4.33;3.90;;;21.70;27.80;;;;;;2264418;61;20427;-59
2023/12/17 10:46:16;0.00;0.00;0.62;0.00;0.00;0.62;5.27;4.03;;;21.70;27.80;;;;;;2265073;61;20368;-58
2023/12/17 10:49:01;0.00;0.00;0.62;0.00;0.00;0.62;4.40;4.00;;;21.80;27.90;;;;;;2264748;61;20372;-60